createdAt,value
2022-11-06T00:02:06.874Z,75.17
2022-11-06T00:04:34.225Z,75.64
2022-11-06T00:07:01.766Z,76.13
2022-11-06T00:09:29.037Z,76.24
2022-11-06T00:11:56.678Z,76.09
2022-11-06T00:14:23.976Z,76.69
2022-11-06T00:16:51.486Z,77.58
2022-11-06T00:19:18.885Z,77.37
2022-11-06T00:21:46.345Z,77.06
2022-11-06T00:24:15.505Z,77.15
2022-11-06T00:26:43.159Z,77.53
2022-11-06T00:29:13.930Z,77.14
2022-11-06T00:31:41.177Z,76.23
2022-11-06T00:34:09.872Z,76.28
2022-11-06T00:36:37.108Z,76.09
2022-11-06T00:39:05.507Z,76.31
2022-11-06T00:41:32.730Z,75.94
2022-11-06T00:44:01.141Z,76.36
2022-11-06T00:46:28.655Z,75.91
2022-11-06T00:48:56.564Z,75.91
2022-11-06T00:51:27.862Z,76.76
2022-11-06T00:53:57.725Z,76.86
2022-11-06T00:56:25.595Z,76.67
2022-11-06T00:58:53.178Z,77.11
2022-11-06T01:01:22.915Z,77.01
2022-11-06T01:04:01.732Z,76.40
2022-11-06T01:06:31.573Z,76.44
2022-11-06T01:08:59.332Z,76.78
2022-11-06T01:11:52.340Z,76.46
2022-11-06T01:14:21.287Z,76.49
2022-11-06T01:16:49.128Z,75.81
2022-11-06T01:19:17.897Z,76.11
2022-11-06T01:21:46.636Z,76.30
2022-11-06T01:24:19.115Z,76.64
2022-11-06T01:27:11.948Z,76.28
2022-11-06T01:29:34.290Z,75.90
2022-11-06T01:32:01.674Z,75.90
2022-11-06T01:34:29.074Z,75.84
2022-11-06T01:36:56.315Z,75.28
2022-11-06T01:39:23.601Z,75.33
2022-11-06T01:41:52.991Z,75.89
2022-11-06T01:44:35.495Z,76.38
2022-11-06T01:47:05.690Z,76.24
2022-11-06T01:49:33.709Z,76.25
2022-11-06T01:52:05.277Z,76.39
2022-11-06T01:54:34.861Z,76.48
2022-11-06T01:57:03.624Z,76.12
2022-11-06T01:59:33.107Z,75.86
2022-11-06T02:02:00.515Z,75.99
2022-11-06T02:04:32.022Z,75.40
2022-11-06T02:07:01.152Z,75.78
2022-11-06T02:09:30.273Z,76.20
2022-11-06T02:12:22.502Z,76.14
2022-11-06T02:15:04.261Z,75.87
2022-11-06T02:17:59.844Z,75.60
2022-11-06T02:20:41.386Z,75.54
2022-11-06T02:23:33.267Z,75.92
2022-11-06T02:26:13.513Z,76.19
2022-11-06T02:28:48.100Z,75.98
2022-11-06T02:31:20.508Z,75.14
2022-11-06T02:33:52.392Z,76.25
2022-11-06T02:36:25.929Z,76.02
2022-11-06T02:38:59.278Z,76.07
2022-11-06T02:41:31.670Z,76.74
2022-11-06T02:43:59.481Z,76.29
2022-11-06T02:46:39.833Z,76.59
2022-11-06T02:49:13.962Z,76.86
2022-11-06T02:51:46.422Z,77.17
2022-11-06T02:54:14.567Z,77.31
2022-11-06T02:56:44.987Z,76.94
2022-11-06T02:59:15.321Z,76.80
2022-11-06T03:02:03.657Z,76.49
2022-11-06T03:04:34.812Z,75.91
2022-11-06T03:07:09.279Z,75.86
2022-11-06T03:09:37.059Z,75.98
2022-11-06T03:12:25.535Z,75.73
2022-11-06T03:15:15.142Z,76.68
2022-11-06T03:17:50.921Z,76.25
2022-11-06T03:20:21.968Z,75.66
2022-11-06T03:23:02.325Z,75.30
2022-11-06T03:25:36.752Z,74.97
2022-11-06T03:28:11.044Z,75.72
2022-11-06T03:30:48.523Z,76.61
2022-11-06T03:33:19.771Z,77.09
2022-11-06T03:35:58.215Z,77.33
2022-11-06T03:38:32.318Z,77.21
2022-11-06T03:41:11.384Z,77.08
2022-11-06T03:43:42.603Z,76.88
2022-11-06T03:46:13.916Z,77.07
2022-11-06T03:48:44.685Z,76.86
2022-11-06T03:51:22.022Z,76.84
2022-11-06T03:54:15.494Z,76.22
2022-11-06T03:56:55.399Z,76.57
2022-11-06T03:59:25.348Z,75.70
2022-11-06T04:01:54.169Z,75.72
2022-11-06T04:04:35.793Z,76.17
2022-11-06T04:07:09.711Z,76.94
2022-11-06T04:09:59.744Z,76.88
2022-11-06T04:12:47.094Z,77.08
2022-11-06T04:15:16.959Z,77.23
2022-11-06T04:17:44.318Z,77.47
2022-11-06T04:20:36.285Z,77.06
2022-11-06T04:23:16.424Z,77.38
2022-11-06T04:26:39.138Z,78.27
2022-11-06T04:29:32.754Z,78.57
2022-11-06T04:32:28.801Z,78.11
2022-11-06T04:35:14.231Z,78.30
2022-11-06T04:37:48.315Z,78.41
2022-11-06T04:40:25.308Z,77.97
2022-11-06T04:42:52.577Z,77.92
2022-11-06T04:45:38.834Z,77.47
2022-11-06T04:48:08.241Z,77.18
2022-11-06T04:50:47.682Z,76.64
2022-11-06T04:53:17.132Z,76.95
2022-11-06T04:55:53.526Z,76.99
2022-11-06T04:58:20.906Z,76.84
2022-11-06T05:00:50.199Z,76.52
2022-11-06T05:03:18.164Z,76.18
2022-11-06T05:05:45.602Z,76.03
2022-11-06T05:08:16.195Z,75.65
2022-11-06T05:10:44.345Z,76.17
2022-11-06T05:13:11.970Z,77.08
2022-11-06T05:15:39.509Z,78.15
2022-11-06T05:18:07.272Z,77.57
2022-11-06T05:20:34.813Z,78.26
2022-11-06T05:23:02.086Z,78.01
2022-11-06T05:25:32.341Z,77.98
2022-11-06T05:28:00.535Z,77.49
2022-11-06T05:30:28.135Z,76.92
2022-11-06T05:32:55.483Z,77.06
2022-11-06T05:35:22.745Z,77.69
2022-11-06T05:37:49.975Z,77.51
2022-11-06T05:40:17.547Z,77.28
2022-11-06T05:42:44.917Z,76.69
2022-11-06T05:45:12.511Z,76.67
2022-11-06T05:47:41.727Z,76.50
2022-11-06T05:50:09.813Z,75.81
2022-11-06T05:52:37.906Z,76.63
2022-11-06T05:55:11.609Z,77.01
2022-11-06T05:57:40.685Z,77.19
2022-11-06T06:00:09.085Z,77.43
2022-11-06T06:02:40.001Z,77.38
2022-11-06T06:05:08.073Z,76.59
2022-11-06T06:07:35.655Z,76.03
2022-11-06T06:10:03.291Z,75.69
2022-11-06T06:12:30.542Z,75.47
2022-11-06T06:14:57.884Z,75.35
2022-11-06T06:17:25.286Z,75.05
2022-11-06T06:19:52.562Z,75.64
2022-11-06T06:22:19.792Z,75.96
2022-11-06T06:24:47.249Z,76.01
2022-11-06T06:27:14.608Z,76.00
2022-11-06T06:29:41.863Z,76.03
2022-11-06T06:32:09.230Z,76.36
2022-11-06T06:34:36.471Z,75.50
2022-11-06T06:37:03.704Z,74.96
2022-11-06T06:39:31.186Z,74.50
2022-11-06T06:41:58.827Z,75.95
2022-11-06T06:44:26.209Z,76.25
2022-11-06T06:46:53.558Z,75.99
2022-11-06T06:49:20.796Z,75.55
2022-11-06T06:51:49.036Z,75.48
2022-11-06T06:54:16.511Z,75.54
2022-11-06T06:56:43.871Z,75.09
2022-11-06T06:59:11.263Z,75.87
2022-11-06T07:01:38.819Z,76.65
2022-11-06T07:04:06.535Z,76.66
2022-11-06T07:06:34.901Z,76.99
2022-11-06T07:09:02.237Z,76.71
2022-11-06T07:11:29.665Z,76.74
2022-11-06T07:13:58.050Z,76.59
2022-11-06T07:16:27.438Z,76.43
2022-11-06T07:18:54.762Z,76.27
2022-11-06T07:21:22.235Z,76.06
2022-11-06T07:23:49.511Z,76.42
2022-11-06T07:26:17.049Z,76.32
2022-11-06T07:28:44.270Z,76.86
2022-11-06T07:31:14.836Z,76.07
2022-11-06T07:33:42.233Z,76.02
2022-11-06T07:36:11.877Z,75.71
2022-11-06T07:38:40.964Z,75.77
2022-11-06T07:41:13.433Z,75.83
2022-11-06T07:43:41.572Z,76.42
2022-11-06T07:46:11.354Z,76.41
2022-11-06T07:48:39.587Z,76.64
2022-11-06T07:51:09.284Z,76.27
2022-11-06T07:53:37.110Z,75.60
2022-11-06T07:56:04.685Z,75.21
2022-11-06T07:58:33.319Z,75.18
2022-11-06T08:01:00.985Z,74.66
2022-11-06T08:03:30.283Z,75.15
2022-11-06T08:05:59.361Z,75.28
2022-11-06T08:08:27.856Z,76.01
2022-11-06T08:10:55.154Z,75.87
2022-11-06T08:13:22.335Z,75.67
2022-11-06T08:15:49.910Z,74.99
2022-11-06T08:18:18.553Z,74.55
2022-11-06T08:20:45.955Z,74.27
2022-11-06T08:23:13.664Z,74.79
2022-11-06T08:25:41.015Z,74.75
2022-11-06T08:28:09.464Z,74.80
2022-11-06T08:30:36.918Z,75.87
2022-11-06T08:33:07.524Z,76.08
2022-11-06T08:35:38.041Z,75.51
2022-11-06T08:38:05.294Z,76.39
2022-11-06T08:40:32.933Z,77.36
2022-11-06T08:43:01.819Z,77.52
2022-11-06T08:45:29.372Z,77.31
2022-11-06T08:48:00.992Z,77.55
2022-11-06T08:50:28.660Z,76.70
2022-11-06T08:53:01.288Z,77.96
2022-11-06T08:55:28.963Z,78.63
2022-11-06T08:57:56.341Z,79.11
2022-11-06T09:00:23.915Z,79.78
2022-11-06T09:02:51.303Z,81.19
2022-11-06T09:05:18.555Z,81.98
2022-11-06T09:07:46.276Z,82.39
2022-11-06T09:10:14.176Z,82.24
2022-11-06T09:12:41.555Z,80.35
2022-11-06T09:15:10.236Z,81.34
2022-11-06T09:17:47.806Z,81.31
2022-11-06T09:20:16.376Z,81.67
2022-11-06T09:22:43.599Z,81.84
2022-11-06T09:25:11.346Z,81.60
2022-11-06T09:27:43.300Z,81.58
2022-11-06T09:30:12.469Z,83.01
2022-11-06T09:32:45.687Z,83.36
2022-11-06T09:35:13.313Z,85.56
2022-11-06T09:37:40.854Z,85.31
2022-11-06T09:40:32.953Z,84.97
2022-11-06T09:43:27.275Z,84.25
2022-11-06T09:46:18.077Z,84.85
2022-11-06T09:48:49.044Z,85.24
2022-11-06T09:51:34.092Z,85.38
2022-11-06T09:54:22.006Z,86.48
2022-11-06T09:56:56.314Z,85.95
2022-11-06T09:59:24.651Z,86.31
2022-11-06T10:01:55.354Z,85.44
2022-11-06T10:05:07.031Z,84.97
2022-11-06T10:07:36.885Z,85.89
2022-11-06T10:10:07.638Z,85.28
2022-11-06T10:12:40.816Z,85.98
2022-11-06T10:15:22.637Z,86.68
2022-11-06T10:18:01.647Z,87.07
2022-11-06T10:20:39.318Z,87.40
2022-11-06T10:23:18.796Z,86.77
2022-11-06T10:25:51.931Z,86.58
2022-11-06T10:28:47.140Z,86.36
2022-11-06T10:31:36.727Z,85.80
2022-11-06T10:34:09.908Z,86.41
2022-11-06T10:36:48.733Z,87.03
2022-11-06T10:39:27.190Z,86.93
2022-11-06T10:42:05.207Z,86.77
2022-11-06T10:44:37.780Z,87.43
2022-11-06T10:47:20.176Z,86.56
2022-11-06T10:50:08.422Z,86.20
2022-11-06T10:52:55.299Z,87.11
2022-11-06T10:55:31.588Z,86.44
2022-11-06T10:58:22.749Z,86.79
2022-11-06T11:00:53.115Z,86.09
2022-11-06T11:03:26.697Z,85.53
2022-11-06T11:05:55.640Z,87.92
2022-11-06T11:08:47.026Z,87.47
2022-11-06T11:11:14.255Z,87.82
2022-11-06T11:13:46.273Z,88.23
2022-11-06T11:16:28.617Z,87.78
2022-11-06T11:19:15.321Z,88.57
2022-11-06T11:22:00.200Z,87.95
2022-11-06T11:24:27.773Z,88.15
2022-11-06T11:27:03.092Z,88.01
2022-11-06T11:29:45.277Z,87.43
2022-11-06T11:32:15.097Z,87.03
2022-11-06T11:34:56.608Z,87.24
2022-11-06T11:37:28.191Z,87.69
2022-11-06T11:39:56.012Z,88.01
2022-11-06T11:42:26.246Z,87.22
2022-11-06T11:45:13.922Z,87.45
2022-11-06T11:47:46.912Z,87.98
2022-11-06T11:50:18.572Z,87.72
2022-11-06T11:52:47.381Z,87.33
2022-11-06T11:55:20.300Z,87.32
2022-11-06T11:57:50.129Z,86.82
2022-11-06T12:00:19.800Z,87.28
2022-11-06T12:02:53.478Z,87.39
2022-11-06T12:05:28.626Z,87.83
2022-11-06T12:07:57.565Z,87.07
2022-11-06T12:10:35.116Z,87.22
2022-11-06T12:13:07.617Z,87.80
2022-11-06T12:15:40.894Z,87.58
2022-11-06T12:18:21.737Z,87.54
2022-11-06T12:21:21.270Z,87.34
2022-11-06T12:23:54.309Z,87.31
2022-11-06T12:26:27.570Z,87.66
2022-11-06T12:29:05.876Z,86.96
2022-11-06T12:31:43.179Z,86.45
2022-11-06T12:34:25.406Z,86.24
2022-11-06T12:37:26.035Z,87.02
2022-11-06T12:40:03.532Z,86.56
2022-11-06T12:42:32.330Z,86.59
2022-11-06T12:44:59.884Z,87.04
2022-11-06T12:47:46.323Z,87.24
2022-11-06T12:50:27.095Z,87.85
2022-11-06T12:53:18.727Z,87.32
2022-11-06T12:56:01.617Z,88.42
2022-11-06T12:58:37.776Z,87.81
2022-11-06T13:01:27.761Z,87.52
2022-11-06T13:04:23.180Z,87.26
2022-11-06T13:07:23.562Z,87.68
2022-11-06T13:10:23.285Z,88.20
2022-11-06T13:12:56.614Z,88.14
2022-11-06T13:15:45.288Z,88.07
2022-11-06T13:18:22.835Z,88.30
2022-11-06T13:21:21.900Z,88.01
2022-11-06T13:23:51.331Z,88.45
2022-11-06T13:26:27.851Z,88.49
2022-11-06T13:29:02.521Z,88.75
2022-11-06T13:31:40.199Z,88.48
2022-11-06T13:34:24.929Z,88.34
2022-11-06T13:36:52.962Z,88.24
2022-11-06T13:39:29.967Z,87.79
2022-11-06T13:41:57.954Z,87.41
2022-11-06T13:44:25.597Z,87.08
2022-11-06T13:47:04.894Z,87.59
2022-11-06T13:50:01.257Z,88.42
2022-11-06T13:52:39.606Z,87.05
2022-11-06T13:55:57.178Z,87.41
2022-11-06T13:58:31.958Z,87.14
2022-11-06T14:01:04.915Z,86.88
2022-11-06T14:04:06.806Z,86.45
2022-11-06T14:06:35.485Z,86.00
2022-11-06T14:09:21.315Z,86.70
2022-11-06T14:11:54.814Z,87.69
2022-11-06T14:14:21.976Z,87.73
2022-11-06T14:17:17.040Z,87.19
2022-11-06T14:19:51.088Z,86.83
2022-11-06T14:22:30.596Z,86.57
2022-11-06T14:25:01.582Z,86.59
2022-11-06T14:27:29.648Z,87.26
2022-11-06T14:30:14.980Z,86.96
2022-11-06T14:32:47.607Z,87.29
2022-11-06T14:35:31.057Z,85.98
2022-11-06T14:38:13.467Z,86.50
2022-11-06T14:40:40.979Z,86.29
2022-11-06T14:43:24.577Z,86.01
2022-11-06T14:46:20.626Z,85.72
2022-11-06T14:48:52.127Z,86.65
2022-11-06T14:51:26.378Z,86.83
2022-11-06T14:53:59.383Z,86.36
2022-11-06T14:56:39.734Z,87.10
2022-11-06T14:59:07.606Z,86.87
2022-11-06T15:01:37.374Z,86.93
2022-11-06T15:04:15.772Z,87.29
2022-11-06T15:06:46.027Z,86.73
2022-11-06T15:09:14.267Z,86.51
2022-11-06T15:11:47.931Z,86.30
2022-11-06T15:14:15.221Z,86.63
2022-11-06T15:16:49.775Z,86.23
2022-11-06T15:19:20.582Z,85.90
2022-11-06T15:22:03.475Z,86.59
2022-11-06T15:24:53.867Z,87.00
2022-11-06T15:27:31.150Z,86.79
2022-11-06T15:30:00.854Z,85.82
2022-11-06T15:32:30.666Z,86.62
2022-11-06T15:35:18.382Z,87.06
2022-11-06T15:37:56.074Z,86.68
2022-11-06T15:40:31.655Z,86.29
2022-11-06T15:43:02.385Z,86.61
2022-11-06T15:45:30.073Z,86.37
2022-11-06T15:48:00.064Z,86.54
2022-11-06T15:50:28.538Z,87.06
2022-11-06T15:53:16.092Z,87.15
2022-11-06T15:55:50.916Z,86.84
2022-11-06T15:58:18.122Z,86.49
2022-11-06T16:00:46.002Z,86.46
2022-11-06T16:03:16.031Z,87.09
2022-11-06T16:05:43.575Z,87.46
2022-11-06T16:08:13.022Z,87.45
2022-11-06T16:10:43.698Z,87.70
2022-11-06T16:13:13.040Z,87.27
2022-11-06T16:15:43.837Z,87.83
2022-11-06T16:18:26.103Z,86.70
2022-11-06T16:20:57.411Z,87.02
2022-11-06T16:23:34.834Z,87.00
2022-11-06T16:26:11.735Z,87.11
2022-11-06T16:28:43.795Z,87.03
2022-11-06T16:31:15.942Z,86.89
2022-11-06T16:33:59.960Z,87.35
2022-11-06T16:36:29.672Z,87.10
2022-11-06T16:39:16.786Z,86.99
2022-11-06T16:42:17.498Z,87.38
2022-11-06T16:44:46.432Z,87.94
2022-11-06T16:47:22.380Z,88.23
2022-11-06T16:49:57.356Z,88.02
2022-11-06T16:52:34.885Z,88.92
2022-11-06T16:55:03.221Z,87.95
2022-11-06T16:57:45.644Z,88.00
2022-11-06T17:00:31.127Z,88.50
2022-11-06T17:03:07.451Z,88.18
2022-11-06T17:05:36.958Z,88.24
2022-11-06T17:08:29.918Z,88.08
2022-11-06T17:10:58.447Z,88.00
2022-11-06T17:13:32.052Z,87.97
2022-11-06T17:16:01.657Z,87.86
2022-11-06T17:18:31.073Z,88.34
2022-11-06T17:21:00.932Z,88.09
2022-11-06T17:23:29.289Z,88.80
2022-11-06T17:25:59.955Z,88.74
2022-11-06T17:28:28.242Z,88.20
2022-11-06T17:30:55.896Z,88.27
2022-11-06T17:33:23.189Z,87.94
2022-11-06T17:35:50.631Z,87.89
2022-11-06T17:38:18.218Z,88.05
2022-11-06T17:40:45.830Z,88.58
2022-11-06T17:43:13.869Z,88.79
2022-11-06T17:45:43.194Z,88.92
2022-11-06T17:48:10.482Z,88.94
2022-11-06T17:50:56.347Z,89.24
2022-11-06T17:53:23.826Z,88.96
2022-11-06T17:55:51.145Z,88.71
2022-11-06T17:58:18.557Z,88.65
2022-11-06T18:00:46.492Z,88.29
2022-11-06T18:03:20.809Z,88.06
2022-11-06T18:05:48.475Z,88.58
2022-11-06T18:08:16.667Z,88.64
2022-11-06T18:10:53.017Z,89.02
2022-11-06T18:13:20.253Z,89.00
2022-11-06T18:15:47.636Z,88.96
2022-11-06T18:18:15.479Z,89.47
2022-11-06T18:20:47.391Z,90.03
2022-11-06T18:23:15.879Z,90.60
2022-11-06T18:25:43.469Z,90.50
2022-11-06T18:28:10.783Z,89.35
2022-11-06T18:30:38.789Z,89.47
2022-11-06T18:33:06.119Z,90.35
2022-11-06T18:35:33.335Z,90.42
2022-11-06T18:38:01.372Z,90.01
2022-11-06T18:40:28.641Z,90.15
2022-11-06T18:42:55.910Z,90.67
2022-11-06T18:45:23.183Z,90.45
2022-11-06T18:47:50.971Z,90.38
2022-11-06T18:50:18.340Z,90.36
2022-11-06T18:52:57.497Z,89.78
2022-11-06T18:55:25.477Z,89.41
2022-11-06T18:57:53.453Z,89.89
2022-11-06T19:00:21.296Z,89.74
2022-11-06T19:02:51.458Z,89.51
2022-11-06T19:05:19.164Z,89.72
2022-11-06T19:07:51.157Z,90.24
2022-11-06T19:10:19.256Z,90.40
2022-11-06T19:12:46.449Z,90.99
2022-11-06T19:15:13.717Z,91.91
2022-11-06T19:17:40.884Z,91.56
2022-11-06T19:20:10.828Z,91.83
2022-11-06T19:22:41.113Z,92.20
2022-11-06T19:25:08.799Z,93.04
2022-11-06T19:27:36.191Z,93.16
2022-11-06T19:30:03.635Z,93.20
2022-11-06T19:32:30.851Z,92.81
2022-11-06T19:34:58.166Z,91.96
2022-11-06T19:37:25.423Z,91.55
2022-11-06T19:39:53.389Z,91.37
2022-11-06T19:42:20.741Z,91.09
2022-11-06T19:44:48.204Z,92.43
2022-11-06T19:47:15.562Z,92.42
2022-11-06T19:49:43.001Z,92.41
2022-11-06T19:52:42.973Z,91.58
2022-11-06T19:55:26.142Z,91.68
2022-11-06T19:57:57.431Z,92.09
2022-11-06T20:00:24.598Z,93.31
2022-11-06T20:02:51.878Z,92.89
2022-11-06T20:05:19.350Z,91.56
2022-11-06T20:07:46.623Z,92.32
2022-11-06T20:10:13.925Z,92.25
2022-11-06T20:12:41.164Z,91.67
2022-11-06T20:15:08.827Z,91.01
2022-11-06T20:17:36.238Z,91.27
2022-11-06T20:20:03.677Z,89.10
2022-11-06T20:22:30.928Z,90.41
2022-11-06T20:24:58.206Z,90.71
2022-11-06T20:27:25.469Z,90.51
2022-11-06T20:29:52.828Z,90.93
2022-11-06T20:32:20.140Z,91.53
2022-11-06T20:34:47.773Z,91.57
2022-11-06T20:37:15.011Z,91.42
2022-11-06T20:39:42.445Z,90.61
2022-11-06T20:42:09.657Z,90.67
2022-11-06T20:44:37.258Z,90.05
2022-11-06T20:47:04.621Z,90.04
2022-11-06T20:49:31.869Z,90.37
2022-11-06T20:52:15.468Z,91.34
2022-11-06T20:54:47.177Z,91.32
2022-11-06T20:57:17.621Z,91.27
2022-11-06T20:59:44.996Z,91.54
2022-11-06T21:02:12.371Z,90.22
2022-11-06T21:04:40.000Z,90.44
2022-11-06T21:07:07.289Z,89.87
2022-11-06T21:09:34.479Z,88.93
2022-11-06T21:12:01.756Z,88.59
2022-11-06T21:14:29.236Z,88.98
2022-11-06T21:16:57.252Z,88.52
2022-11-06T21:19:24.693Z,88.56
2022-11-06T21:21:52.323Z,88.43
2022-11-06T21:24:19.728Z,88.49
2022-11-06T21:26:47.006Z,88.52
2022-11-06T21:29:14.457Z,87.89
2022-11-06T21:31:48.552Z,87.10
2022-11-06T21:34:17.484Z,87.13
2022-11-06T21:36:48.168Z,86.98
2022-11-06T21:39:18.453Z,87.11
2022-11-06T21:41:46.667Z,87.37
2022-11-06T21:44:16.404Z,87.36
2022-11-06T21:46:45.709Z,87.38
2022-11-06T21:49:13.885Z,87.13
2022-11-06T21:51:41.674Z,87.46
2022-11-06T21:54:30.340Z,87.31
2022-11-06T21:56:57.672Z,87.22
2022-11-06T21:59:27.007Z,87.27
2022-11-06T22:01:54.660Z,87.31
2022-11-06T22:04:22.452Z,87.52
2022-11-06T22:06:49.643Z,87.66
2022-11-06T22:09:21.941Z,87.88
2022-11-06T22:11:51.919Z,86.99
2022-11-06T22:14:19.317Z,87.82
2022-11-06T22:16:47.816Z,87.53
2022-11-06T22:19:16.155Z,87.49
2022-11-06T22:21:43.694Z,88.22
2022-11-06T22:24:12.853Z,87.80
2022-11-06T22:26:40.647Z,87.41
2022-11-06T22:29:10.924Z,86.98
2022-11-06T22:31:38.549Z,87.01
2022-11-06T22:34:05.784Z,87.35
2022-11-06T22:36:33.066Z,87.69
2022-11-06T22:39:04.705Z,86.67
2022-11-06T22:41:32.204Z,87.19
2022-11-06T22:43:59.708Z,89.24
2022-11-06T22:46:28.979Z,85.04
2022-11-06T22:48:57.131Z,83.79
2022-11-06T22:51:29.222Z,85.08
2022-11-06T22:53:56.631Z,85.31
2022-11-06T22:56:25.032Z,85.04
2022-11-06T22:58:56.228Z,85.28
2022-11-06T23:01:25.449Z,85.56
2022-11-06T23:03:56.930Z,86.01
2022-11-06T23:06:25.659Z,86.64
2022-11-06T23:08:53.464Z,86.81
2022-11-06T23:11:21.809Z,85.99
2022-11-06T23:13:49.034Z,86.26
2022-11-06T23:16:50.357Z,86.56
2022-11-06T23:19:19.914Z,86.56
2022-11-06T23:21:47.243Z,86.73
2022-11-06T23:24:14.706Z,87.29
2022-11-06T23:26:43.683Z,86.71
2022-11-06T23:29:11.274Z,86.91
2022-11-06T23:31:38.523Z,86.90
2022-11-06T23:34:05.904Z,87.32
2022-11-06T23:36:33.232Z,86.96
2022-11-06T23:39:00.533Z,86.95
2022-11-06T23:41:43.483Z,86.81
2022-11-06T23:44:30.869Z,86.79
2022-11-06T23:46:58.279Z,86.02
2022-11-06T23:49:25.504Z,86.38
2022-11-06T23:51:53.035Z,87.21
2022-11-06T23:54:20.695Z,87.17
2022-11-06T23:56:47.889Z,87.45
2022-11-06T23:59:15.222Z,88.01
